createdAt,value
2018-11-26T00:00:23.047Z,965.95
2018-11-26T00:01:20.364Z,965.98
2018-11-26T00:02:21.339Z,965.98
2018-11-26T00:03:25.041Z,965.96
2018-11-26T00:04:20.375Z,965.95
2018-11-26T00:05:20.344Z,965.95
2018-11-26T00:06:20.344Z,965.95
2018-11-26T00:07:20.336Z,965.93
2018-11-26T00:08:20.329Z,965.92
2018-11-26T00:09:20.348Z,965.92
2018-11-26T00:10:22.044Z,965.95
2018-11-26T00:11:24.114Z,965.97
2018-11-26T00:12:20.305Z,965.92
2018-11-26T00:13:23.177Z,965.96
2018-11-26T00:14:22.541Z,965.88
2018-11-26T00:15:20.292Z,965.92
2018-11-26T00:16:20.287Z,965.91
2018-11-26T00:17:25.540Z,965.92
2018-11-26T00:18:20.268Z,965.94
2018-11-26T00:19:20.303Z,965.90
2018-11-26T00:20:20.255Z,965.89
2018-11-26T00:21:20.258Z,965.89
2018-11-26T00:22:21.123Z,965.83
2018-11-26T00:23:20.248Z,965.88
2018-11-26T00:24:20.268Z,965.87
2018-11-26T00:25:23.177Z,965.90
2018-11-26T00:26:21.269Z,965.91
2018-11-26T00:27:20.220Z,965.87
2018-11-26T00:28:20.220Z,965.87
2018-11-26T00:29:20.213Z,965.85
2018-11-26T00:30:20.241Z,965.83
2018-11-26T00:31:24.041Z,965.82
2018-11-26T00:32:21.175Z,965.80
2018-11-26T00:33:22.048Z,965.80
2018-11-26T00:34:20.182Z,965.75
2018-11-26T00:35:20.208Z,965.74
2018-11-26T00:36:23.067Z,965.74
2018-11-26T00:37:20.172Z,965.72
2018-11-26T00:38:20.167Z,965.76
2018-11-26T00:39:20.155Z,965.77
2018-11-26T00:40:21.672Z,965.77
2018-11-26T00:41:25.054Z,965.78
2018-11-26T00:42:20.138Z,965.81
2018-11-26T00:43:20.710Z,965.81
2018-11-26T00:44:21.715Z,965.81
2018-11-26T00:45:23.617Z,965.83
2018-11-26T00:46:20.766Z,965.80
2018-11-26T00:47:20.113Z,965.79
2018-11-26T00:48:20.110Z,965.80
2018-11-26T00:49:21.863Z,965.78
2018-11-26T00:50:20.119Z,965.76
2018-11-26T00:51:20.091Z,965.77
2018-11-26T00:52:20.088Z,965.76
2018-11-26T00:53:20.078Z,965.72
2018-11-26T00:54:20.070Z,965.67
2018-11-26T00:55:20.095Z,965.67
2018-11-26T00:56:23.551Z,965.69
2018-11-26T00:57:20.056Z,965.66
2018-11-26T00:58:20.059Z,965.64
2018-11-26T00:59:20.044Z,965.67
2018-11-26T01:00:20.675Z,965.68
2018-11-26T01:01:20.043Z,965.66
2018-11-26T01:02:23.041Z,965.64
2018-11-26T01:03:20.542Z,965.69
2018-11-26T01:04:20.025Z,965.69
2018-11-26T01:05:23.221Z,965.67
2018-11-26T01:06:24.543Z,965.70
2018-11-26T01:07:20.618Z,965.71
2018-11-26T01:08:22.674Z,965.60
2018-11-26T01:09:19.996Z,965.62
2018-11-26T01:10:20.011Z,965.52
2018-11-26T01:11:19.979Z,965.57
2018-11-26T01:12:19.971Z,965.53
2018-11-26T01:13:20.674Z,965.52
2018-11-26T01:14:20.191Z,965.54
2018-11-26T01:15:26.100Z,965.47
2018-11-26T01:16:21.560Z,965.50
2018-11-26T01:17:21.041Z,965.49
2018-11-26T01:18:21.776Z,965.52
2018-11-26T01:19:19.938Z,965.48
2018-11-26T01:20:25.040Z,965.46
2018-11-26T01:21:23.564Z,965.47
2018-11-26T01:22:19.919Z,965.43
2018-11-26T01:23:19.910Z,965.47
2018-11-26T01:24:19.907Z,965.44
2018-11-26T01:25:21.054Z,965.45
2018-11-26T01:26:20.126Z,965.39
2018-11-26T01:27:20.961Z,965.42
2018-11-26T01:28:19.882Z,965.37
2018-11-26T01:29:20.060Z,965.38
2018-11-26T01:30:19.905Z,965.42
2018-11-26T01:31:19.866Z,965.42
2018-11-26T01:32:22.674Z,965.42
2018-11-26T01:33:19.852Z,965.41
2018-11-26T01:34:19.856Z,965.37
2018-11-26T01:35:21.174Z,965.35
2018-11-26T01:36:19.844Z,965.34
2018-11-26T01:37:19.834Z,965.31
2018-11-26T01:38:19.823Z,965.27
2018-11-26T01:39:19.817Z,965.25
2018-11-26T01:40:19.859Z,965.27
2018-11-26T01:41:29.544Z,965.24
2018-11-26T01:42:20.621Z,965.23
2018-11-26T01:43:19.801Z,965.19
2018-11-26T01:44:19.795Z,965.21
2018-11-26T01:45:19.814Z,965.20
2018-11-26T01:46:19.780Z,965.19
2018-11-26T01:47:19.775Z,965.17
2018-11-26T01:48:19.774Z,965.11
2018-11-26T01:49:19.771Z,965.19
2018-11-26T01:50:19.789Z,965.15
2018-11-26T01:51:19.758Z,965.11
2018-11-26T01:52:19.749Z,965.11
2018-11-26T01:53:19.745Z,965.14
2018-11-26T01:54:19.745Z,965.11
2018-11-26T01:55:19.766Z,965.12
2018-11-26T01:56:19.730Z,965.14
2018-11-26T01:57:19.726Z,965.15
2018-11-26T01:58:19.720Z,965.16
2018-11-26T01:59:19.713Z,965.16
2018-11-26T02:00:19.738Z,965.15
2018-11-26T02:01:19.704Z,965.15
2018-11-26T02:02:19.699Z,965.18
2018-11-26T02:03:19.685Z,965.17
2018-11-26T02:04:19.687Z,965.22
2018-11-26T02:05:19.702Z,965.17
2018-11-26T02:06:19.673Z,965.16
2018-11-26T02:07:19.670Z,965.18
2018-11-26T02:08:19.661Z,965.13
2018-11-26T02:09:19.657Z,965.12
2018-11-26T02:10:19.678Z,965.09
2018-11-26T02:11:19.646Z,965.09
2018-11-26T02:12:19.637Z,965.06
2018-11-26T02:13:19.635Z,964.98
2018-11-26T02:14:19.626Z,965.01
2018-11-26T02:15:19.653Z,965.02
2018-11-26T02:16:19.613Z,965.01
2018-11-26T02:17:19.619Z,964.98
2018-11-26T02:18:19.612Z,965.00
2018-11-26T02:19:19.603Z,965.00
2018-11-26T02:20:19.625Z,964.96
2018-11-26T02:21:19.594Z,964.98
2018-11-26T02:22:19.585Z,964.95
2018-11-26T02:23:19.581Z,964.95
2018-11-26T02:24:19.575Z,964.93
2018-11-26T02:25:19.592Z,964.94
2018-11-26T02:26:19.569Z,964.92
2018-11-26T02:27:20.453Z,964.90
2018-11-26T02:28:19.557Z,964.93
2018-11-26T02:29:19.553Z,964.90
2018-11-26T02:30:19.572Z,964.92
2018-11-26T02:31:19.535Z,964.92
2018-11-26T02:32:19.542Z,964.94
2018-11-26T02:33:19.525Z,964.88
2018-11-26T02:34:19.520Z,964.88
2018-11-26T02:35:19.561Z,964.87
2018-11-26T02:36:19.509Z,964.86
2018-11-26T02:37:19.505Z,964.88
2018-11-26T02:38:19.514Z,964.85
2018-11-26T02:39:19.493Z,964.78
2018-11-26T02:40:19.514Z,964.80
2018-11-26T02:41:19.481Z,964.80
2018-11-26T02:42:19.476Z,964.77
2018-11-26T02:43:19.474Z,964.78
2018-11-26T02:44:19.464Z,964.78
2018-11-26T02:45:19.487Z,964.77
2018-11-26T02:46:19.452Z,964.79
2018-11-26T02:47:19.448Z,964.77
2018-11-26T02:48:19.444Z,964.77
2018-11-26T02:49:19.437Z,964.72
2018-11-26T02:50:19.465Z,964.75
2018-11-26T02:51:19.424Z,964.71
2018-11-26T02:52:19.425Z,964.68
2018-11-26T02:53:19.413Z,964.70
2018-11-26T02:54:19.416Z,964.66
2018-11-26T02:55:19.433Z,964.66
2018-11-26T02:56:19.407Z,964.70
2018-11-26T02:57:19.396Z,964.68
2018-11-26T02:58:19.390Z,964.74
2018-11-26T02:59:19.385Z,964.73
2018-11-26T03:00:19.404Z,964.69
2018-11-26T03:01:19.372Z,964.69
2018-11-26T03:02:19.371Z,964.65
2018-11-26T03:03:19.364Z,964.73
2018-11-26T03:04:19.365Z,964.69
2018-11-26T03:05:19.376Z,964.67
2018-11-26T03:06:19.351Z,964.69
2018-11-26T03:07:19.339Z,964.62
2018-11-26T03:08:19.332Z,964.63
2018-11-26T03:09:19.324Z,964.60
2018-11-26T03:10:19.363Z,964.59
2018-11-26T03:11:19.319Z,964.57
2018-11-26T03:12:19.312Z,964.55
2018-11-26T03:13:19.307Z,964.54
2018-11-26T03:14:19.305Z,964.51
2018-11-26T03:15:19.324Z,964.55
2018-11-26T03:16:19.299Z,964.51
2018-11-26T03:17:19.291Z,964.50
2018-11-26T03:18:19.954Z,964.50
2018-11-26T03:19:19.275Z,964.47
2018-11-26T03:20:19.296Z,964.48
2018-11-26T03:21:19.260Z,964.47
2018-11-26T03:22:19.262Z,964.47
2018-11-26T03:23:19.252Z,964.47
2018-11-26T03:24:19.248Z,964.39
2018-11-26T03:25:19.259Z,964.38
2018-11-26T03:26:19.236Z,964.39
2018-11-26T03:27:19.232Z,964.41
2018-11-26T03:28:19.224Z,964.34
2018-11-26T03:29:19.219Z,964.45
2018-11-26T03:30:19.247Z,964.44
2018-11-26T03:31:19.207Z,964.46
2018-11-26T03:32:19.200Z,964.46
2018-11-26T03:33:19.194Z,964.49
2018-11-26T03:34:19.190Z,964.50
2018-11-26T03:35:19.225Z,964.51
2018-11-26T03:36:19.184Z,964.47
2018-11-26T03:37:19.387Z,964.48
2018-11-26T03:38:19.171Z,964.47
2018-11-26T03:39:19.171Z,964.44
2018-11-26T03:40:19.186Z,964.46
2018-11-26T03:41:19.154Z,964.43
2018-11-26T03:42:19.155Z,964.42
2018-11-26T03:43:19.143Z,964.35
2018-11-26T03:44:19.138Z,964.37
2018-11-26T03:45:19.155Z,964.37
2018-11-26T03:46:19.128Z,964.31
2018-11-26T03:47:19.122Z,964.33
2018-11-26T03:48:19.114Z,964.34
2018-11-26T03:49:19.111Z,964.29
2018-11-26T03:50:19.135Z,964.33
2018-11-26T03:51:19.100Z,964.38
2018-11-26T03:52:19.096Z,964.30
2018-11-26T03:53:19.090Z,964.31
2018-11-26T03:54:19.673Z,964.32
2018-11-26T03:55:19.109Z,964.30
2018-11-26T03:56:19.070Z,964.38
2018-11-26T03:57:19.068Z,964.35
2018-11-26T03:58:19.062Z,964.37
2018-11-26T03:59:19.060Z,964.35
2018-11-26T04:00:19.078Z,964.39
2018-11-26T04:01:19.050Z,964.35
2018-11-26T04:02:19.066Z,964.36
2018-11-26T04:03:19.039Z,964.38
2018-11-26T04:04:19.030Z,964.34
2018-11-26T04:05:19.051Z,964.34
2018-11-26T04:06:19.027Z,964.35
2018-11-26T04:07:19.014Z,964.33
2018-11-26T04:08:19.006Z,964.40
2018-11-26T04:09:19.001Z,964.40
2018-11-26T04:10:19.023Z,964.41
2018-11-26T04:11:18.993Z,964.41
2018-11-26T04:12:18.987Z,964.39
2018-11-26T04:13:18.975Z,964.41
2018-11-26T04:14:19.006Z,964.40
2018-11-26T04:15:18.966Z,964.39
2018-11-26T04:16:18.966Z,964.37
2018-11-26T04:17:18.958Z,964.40
2018-11-26T04:18:18.952Z,964.37
2018-11-26T04:19:18.979Z,964.42
2018-11-26T04:20:18.941Z,964.42
2018-11-26T04:21:18.937Z,964.36
2018-11-26T04:22:18.928Z,964.37
2018-11-26T04:23:18.926Z,964.39
2018-11-26T04:24:18.943Z,964.36
2018-11-26T04:25:18.917Z,964.35
2018-11-26T04:26:18.909Z,964.36
2018-11-26T04:27:18.913Z,964.34
2018-11-26T04:28:18.897Z,964.31
2018-11-26T04:29:18.926Z,964.37
2018-11-26T04:30:18.886Z,964.32
2018-11-26T04:31:18.883Z,964.34
2018-11-26T04:32:18.881Z,964.36
2018-11-26T04:33:18.871Z,964.37
2018-11-26T04:34:18.902Z,964.37
2018-11-26T04:35:18.862Z,964.42
2018-11-26T04:36:18.854Z,964.44
2018-11-26T04:37:18.846Z,964.39
2018-11-26T04:38:18.845Z,964.39
2018-11-26T04:39:18.865Z,964.43
2018-11-26T04:40:18.840Z,964.45
2018-11-26T04:41:18.825Z,964.44
2018-11-26T04:42:18.823Z,964.43
2018-11-26T04:43:18.814Z,964.43
2018-11-26T04:44:18.838Z,964.43
2018-11-26T04:45:18.805Z,964.43
2018-11-26T04:46:18.801Z,964.44
2018-11-26T04:47:18.797Z,964.40
2018-11-26T04:48:18.790Z,964.41
2018-11-26T04:49:18.813Z,964.45
2018-11-26T04:50:18.780Z,964.46
2018-11-26T04:51:18.772Z,964.49
2018-11-26T04:52:18.764Z,964.44
2018-11-26T04:53:18.763Z,964.43
2018-11-26T04:54:18.785Z,964.42
2018-11-26T04:55:18.753Z,964.45
2018-11-26T04:56:18.746Z,964.45
2018-11-26T04:57:18.740Z,964.47
2018-11-26T04:58:18.733Z,964.48
2018-11-26T04:59:18.756Z,964.48
2018-11-26T05:00:18.724Z,964.49
2018-11-26T05:01:18.718Z,964.47
2018-11-26T05:02:18.708Z,964.47
2018-11-26T05:03:18.705Z,964.46
2018-11-26T05:04:18.750Z,964.42
2018-11-26T05:05:18.693Z,964.41
2018-11-26T05:06:18.698Z,964.40
2018-11-26T05:07:18.688Z,964.40
2018-11-26T05:08:18.682Z,964.39
2018-11-26T05:09:18.709Z,964.34
2018-11-26T05:10:18.670Z,964.32
2018-11-26T05:11:18.660Z,964.35
2018-11-26T05:12:18.656Z,964.36
2018-11-26T05:13:18.664Z,964.36
2018-11-26T05:14:18.680Z,964.35
2018-11-26T05:15:18.668Z,964.38
2018-11-26T05:16:18.640Z,964.38
2018-11-26T05:17:18.631Z,964.38
2018-11-26T05:18:18.624Z,964.41
2018-11-26T05:19:18.627Z,964.42
2018-11-26T05:20:18.644Z,964.42
2018-11-26T05:21:18.608Z,964.41
2018-11-26T05:22:18.603Z,964.39
2018-11-26T05:23:18.600Z,964.43
2018-11-26T05:24:18.592Z,964.43
2018-11-26T05:25:18.615Z,964.40
2018-11-26T05:26:18.579Z,964.38
2018-11-26T05:27:18.575Z,964.41
2018-11-26T05:28:18.571Z,964.40
2018-11-26T05:29:18.595Z,964.38
2018-11-26T05:30:18.587Z,964.40
2018-11-26T05:31:18.551Z,964.40
2018-11-26T05:32:18.548Z,964.45
2018-11-26T05:33:18.543Z,964.39
2018-11-26T05:34:18.541Z,964.45
2018-11-26T05:35:18.564Z,964.42
2018-11-26T05:36:18.528Z,964.40
2018-11-26T05:37:18.526Z,964.44
2018-11-26T05:38:18.518Z,964.41
2018-11-26T05:39:18.513Z,964.42
2018-11-26T05:40:18.540Z,964.40
2018-11-26T05:41:18.500Z,964.39
2018-11-26T05:42:18.492Z,964.42
2018-11-26T05:43:18.491Z,964.42
2018-11-26T05:44:18.481Z,964.39
2018-11-26T05:45:18.508Z,964.42
2018-11-26T05:46:18.472Z,964.39
2018-11-26T05:47:18.473Z,964.42
2018-11-26T05:48:18.462Z,964.47
2018-11-26T05:49:18.458Z,964.45
2018-11-26T05:50:18.479Z,964.44
2018-11-26T05:51:18.450Z,964.45
2018-11-26T05:52:18.440Z,964.46
2018-11-26T05:53:18.434Z,964.46
2018-11-26T05:54:18.432Z,964.44
2018-11-26T05:55:18.447Z,964.42
2018-11-26T05:56:18.422Z,964.43
2018-11-26T05:57:18.411Z,964.44
2018-11-26T05:58:18.406Z,964.42
2018-11-26T05:59:18.402Z,964.38
2018-11-26T06:00:18.426Z,964.41
2018-11-26T06:01:18.390Z,964.40
2018-11-26T06:02:18.387Z,964.45
2018-11-26T06:03:18.379Z,964.42
2018-11-26T06:04:18.375Z,964.46
2018-11-26T06:05:18.399Z,964.44
2018-11-26T06:06:18.362Z,964.45
2018-11-26T06:07:18.359Z,964.44
2018-11-26T06:08:18.358Z,964.43
2018-11-26T06:09:18.347Z,964.38
2018-11-26T06:10:18.366Z,964.39
2018-11-26T06:11:18.334Z,964.39
2018-11-26T06:12:18.331Z,964.41
2018-11-26T06:13:18.331Z,964.42
2018-11-26T06:14:18.319Z,964.48
2018-11-26T06:15:18.355Z,964.41
2018-11-26T06:16:18.306Z,964.45
2018-11-26T06:17:18.302Z,964.46
2018-11-26T06:18:18.306Z,964.48
2018-11-26T06:19:18.290Z,964.50
2018-11-26T06:20:19.709Z,964.46
2018-11-26T06:21:18.280Z,964.49
2018-11-26T06:22:18.276Z,964.51
2018-11-26T06:23:18.266Z,964.50
2018-11-26T06:24:18.261Z,964.50
2018-11-26T06:25:18.342Z,964.54
2018-11-26T06:26:18.254Z,964.60
2018-11-26T06:27:18.243Z,964.63
2018-11-26T06:28:18.247Z,964.60
2018-11-26T06:29:18.265Z,964.62
2018-11-26T06:30:18.260Z,964.63
2018-11-26T06:31:18.226Z,964.68
2018-11-26T06:32:18.221Z,964.70
2018-11-26T06:33:18.214Z,964.65
2018-11-26T06:34:18.210Z,964.64
2018-11-26T06:35:18.235Z,964.69
2018-11-26T06:36:18.195Z,964.69
2018-11-26T06:37:18.194Z,964.68
2018-11-26T06:38:18.204Z,964.69
2018-11-26T06:39:18.183Z,964.69
2018-11-26T06:40:18.201Z,964.70
2018-11-26T06:41:18.169Z,964.72
2018-11-26T06:42:18.167Z,964.79
2018-11-26T06:43:18.162Z,964.81
2018-11-26T06:44:18.156Z,964.80
2018-11-26T06:45:18.177Z,964.81
2018-11-26T06:46:18.161Z,964.80
2018-11-26T06:47:18.136Z,964.76
2018-11-26T06:48:18.133Z,964.78
2018-11-26T06:49:18.125Z,964.80
2018-11-26T06:50:18.159Z,964.76
2018-11-26T06:51:18.112Z,964.78
2018-11-26T06:52:18.109Z,964.81
2018-11-26T06:53:18.093Z,964.84
2018-11-26T06:54:18.104Z,964.81
2018-11-26T06:55:18.121Z,964.85
2018-11-26T06:56:18.091Z,964.85
2018-11-26T06:57:18.085Z,964.84
2018-11-26T06:58:18.077Z,964.81
2018-11-26T06:59:18.073Z,964.86
2018-11-26T07:00:18.095Z,964.96
2018-11-26T07:01:18.060Z,964.89
2018-11-26T07:02:18.055Z,964.90
2018-11-26T07:03:18.036Z,964.91
2018-11-26T07:04:18.070Z,964.95
2018-11-26T07:05:18.079Z,964.96
2018-11-26T07:06:18.028Z,964.99
2018-11-26T07:07:18.027Z,965.05
2018-11-26T07:08:18.020Z,965.05
2018-11-26T07:09:18.019Z,965.09
2018-11-26T07:10:18.040Z,965.06
2018-11-26T07:11:18.009Z,965.04
2018-11-26T07:12:18.000Z,965.09
2018-11-26T07:13:17.996Z,965.12
2018-11-26T07:14:18.020Z,965.09
2018-11-26T07:15:17.986Z,965.03
2018-11-26T07:16:18.004Z,965.02
2018-11-26T07:17:17.977Z,964.99
2018-11-26T07:18:17.968Z,964.93
2018-11-26T07:19:17.964Z,964.95
2018-11-26T07:20:17.986Z,964.98
2018-11-26T07:21:17.954Z,965.01
2018-11-26T07:22:17.945Z,965.03
2018-11-26T07:23:17.941Z,965.01
2018-11-26T07:24:17.966Z,964.99
2018-11-26T07:25:17.928Z,964.93
2018-11-26T07:26:17.924Z,964.96
2018-11-26T07:27:17.919Z,964.93
2018-11-26T07:28:17.911Z,964.94
2018-11-26T07:29:23.973Z,965.01
2018-11-26T07:30:17.899Z,965.02
2018-11-26T07:31:17.895Z,965.06
2018-11-26T07:32:17.889Z,965.05
2018-11-26T07:33:18.300Z,965.06
2018-11-26T07:34:17.908Z,965.10
2018-11-26T07:35:17.878Z,965.05
2018-11-26T07:36:17.896Z,965.03
2018-11-26T07:37:17.868Z,965.10
2018-11-26T07:38:17.858Z,965.01
2018-11-26T07:39:17.854Z,965.08
2018-11-26T07:40:17.873Z,965.02
2018-11-26T07:41:17.840Z,965.07
2018-11-26T07:42:17.835Z,965.06
2018-11-26T07:43:17.828Z,965.06
2018-11-26T07:44:17.825Z,964.99
2018-11-26T07:45:17.848Z,964.97
2018-11-26T07:46:17.836Z,964.97
2018-11-26T07:47:17.805Z,965.01
2018-11-26T07:48:17.795Z,965.01
2018-11-26T07:49:17.791Z,965.01
2018-11-26T07:50:17.791Z,965.07
2018-11-26T07:51:17.811Z,965.03
2018-11-26T07:52:17.781Z,965.01
2018-11-26T07:53:17.772Z,964.98
2018-11-26T07:54:17.770Z,965.03
2018-11-26T07:55:17.762Z,965.04
2018-11-26T07:56:17.783Z,965.08
2018-11-26T07:57:17.755Z,965.09
2018-11-26T07:58:17.742Z,965.08
2018-11-26T07:59:17.790Z,965.15
2018-11-26T08:00:17.732Z,965.16
2018-11-26T08:01:17.755Z,965.19
2018-11-26T08:02:17.724Z,965.21
2018-11-26T08:03:17.719Z,965.21
2018-11-26T08:04:17.708Z,965.16
2018-11-26T08:05:17.730Z,965.16
2018-11-26T08:06:17.701Z,965.21
2018-11-26T08:07:17.697Z,965.17
2018-11-26T08:08:17.687Z,965.14
2018-11-26T08:09:17.684Z,965.15
2018-11-26T08:10:17.703Z,965.11
2018-11-26T08:11:17.672Z,965.12
2018-11-26T08:12:17.666Z,965.12
2018-11-26T08:13:17.659Z,965.10
2018-11-26T08:14:17.655Z,965.11
2018-11-26T08:15:17.674Z,965.14
2018-11-26T08:16:17.679Z,965.16
2018-11-26T08:17:17.634Z,965.12
2018-11-26T08:18:17.638Z,965.10
2018-11-26T08:19:17.624Z,965.13
2018-11-26T08:20:17.618Z,965.21
2018-11-26T08:21:17.642Z,965.18
2018-11-26T08:22:17.616Z,965.26
2018-11-26T08:23:17.599Z,965.23
2018-11-26T08:24:17.597Z,965.21
2018-11-26T08:25:17.593Z,965.17
2018-11-26T08:26:17.614Z,965.27
2018-11-26T08:27:17.583Z,965.25
2018-11-26T08:28:17.580Z,965.19
2018-11-26T08:29:17.571Z,965.17
2018-11-26T08:30:17.562Z,965.22
2018-11-26T08:31:17.588Z,965.21
2018-11-26T08:32:17.555Z,965.18
2018-11-26T08:33:17.548Z,965.17
2018-11-26T08:34:17.541Z,965.18
2018-11-26T08:35:17.571Z,965.21
2018-11-26T08:36:17.536Z,965.19
2018-11-26T08:37:17.550Z,965.19
2018-11-26T08:38:17.514Z,965.26
2018-11-26T08:39:17.513Z,965.24
2018-11-26T08:40:17.502Z,965.22
2018-11-26T08:41:17.530Z,965.23
2018-11-26T08:42:17.494Z,965.25
2018-11-26T08:43:17.492Z,965.23
2018-11-26T08:44:17.482Z,965.22
2018-11-26T08:45:17.479Z,965.19
2018-11-26T08:46:17.501Z,965.27
2018-11-26T08:47:17.467Z,965.25
2018-11-26T08:48:17.461Z,965.26
2018-11-26T08:49:17.453Z,965.28
2018-11-26T08:50:17.480Z,965.26
2018-11-26T08:51:17.443Z,965.32
2018-11-26T08:52:17.437Z,965.33
2018-11-26T08:53:17.432Z,965.32
2018-11-26T08:54:17.425Z,965.35
2018-11-26T08:55:17.447Z,965.35
2018-11-26T08:56:17.413Z,965.40
2018-11-26T08:57:17.405Z,965.43
2018-11-26T08:58:17.409Z,965.49
2018-11-26T08:59:17.397Z,965.47
2018-11-26T09:00:17.417Z,965.47
2018-11-26T09:01:17.385Z,965.48
2018-11-26T09:02:17.382Z,965.53
2018-11-26T09:03:17.377Z,965.48
2018-11-26T09:04:17.370Z,965.52
2018-11-26T09:05:23.733Z,965.53
2018-11-26T09:06:17.357Z,965.50
2018-11-26T09:07:17.352Z,965.56
2018-11-26T09:08:17.344Z,965.56
2018-11-26T09:09:17.342Z,965.53
2018-11-26T09:10:17.365Z,965.49
2018-11-26T09:11:17.329Z,965.50
2018-11-26T09:12:17.321Z,965.56
2018-11-26T09:13:17.316Z,965.58
2018-11-26T09:14:17.310Z,965.56
2018-11-26T09:15:17.334Z,965.58
2018-11-26T09:16:17.300Z,965.59
2018-11-26T09:17:17.292Z,965.63
2018-11-26T09:18:17.289Z,965.60
2018-11-26T09:19:17.286Z,965.61
2018-11-26T09:20:17.328Z,965.63
2018-11-26T09:21:17.272Z,965.66
2018-11-26T09:22:17.293Z,965.66
2018-11-26T09:23:17.261Z,965.64
2018-11-26T09:24:17.252Z,965.68
2018-11-26T09:25:17.273Z,965.64
2018-11-26T09:26:17.240Z,965.63
2018-11-26T09:27:17.237Z,965.66
2018-11-26T09:28:17.227Z,965.69
2018-11-26T09:29:17.224Z,965.68
2018-11-26T09:30:17.254Z,965.68
2018-11-26T09:31:17.212Z,965.71
2018-11-26T09:32:17.231Z,965.68
2018-11-26T09:33:17.203Z,965.66
2018-11-26T09:34:17.197Z,965.68
2018-11-26T09:35:17.194Z,965.72
2018-11-26T09:36:17.216Z,965.70
2018-11-26T09:37:17.173Z,965.73
2018-11-26T09:38:17.174Z,965.75
2018-11-26T09:39:17.166Z,965.77
2018-11-26T09:40:17.189Z,965.75
2018-11-26T09:41:17.155Z,965.72
2018-11-26T09:42:17.148Z,965.73
2018-11-26T09:43:17.143Z,965.72
2018-11-26T09:44:17.137Z,965.74
2018-11-26T09:45:17.163Z,965.71
2018-11-26T09:46:17.124Z,965.72
2018-11-26T09:47:17.119Z,965.75
2018-11-26T09:48:17.115Z,965.75
2018-11-26T09:49:17.107Z,965.75
2018-11-26T09:50:17.129Z,965.79
2018-11-26T09:51:17.094Z,965.78
2018-11-26T09:52:17.091Z,965.80
2018-11-26T09:53:17.082Z,965.81
2018-11-26T09:54:17.082Z,965.81
2018-11-26T09:55:17.096Z,965.79
2018-11-26T09:56:17.063Z,965.82
2018-11-26T09:57:17.054Z,965.79
2018-11-26T09:58:17.057Z,965.77
2018-11-26T09:59:17.080Z,965.84
2018-11-26T10:00:17.038Z,965.81
2018-11-26T10:01:17.041Z,965.84
2018-11-26T10:02:17.062Z,965.84
2018-11-26T10:03:17.031Z,965.81
2018-11-26T10:04:17.010Z,965.78
2018-11-26T10:05:17.044Z,965.76
2018-11-26T10:06:17.010Z,965.72
2018-11-26T10:07:17.004Z,965.71
2018-11-26T10:08:17.001Z,965.69
2018-11-26T10:09:16.991Z,965.66
2018-11-26T10:10:17.014Z,965.70
2018-11-26T10:11:16.978Z,965.70
2018-11-26T10:12:16.973Z,965.73
2018-11-26T10:13:16.970Z,965.71
2018-11-26T10:14:16.961Z,965.76
2018-11-26T10:15:17.021Z,965.71
2018-11-26T10:16:16.951Z,965.66
2018-11-26T10:17:16.942Z,965.69
2018-11-26T10:18:16.936Z,965.67
2018-11-26T10:19:16.933Z,965.64
2018-11-26T10:20:16.957Z,965.62
2018-11-26T10:21:16.921Z,965.59
2018-11-26T10:22:16.918Z,965.61
2018-11-26T10:23:16.909Z,965.60
2018-11-26T10:24:17.072Z,965.56
2018-11-26T10:25:16.931Z,965.52
2018-11-26T10:26:16.895Z,965.53
2018-11-26T10:27:16.893Z,965.65
2018-11-26T10:28:16.881Z,965.56
2018-11-26T10:29:16.877Z,965.51
2018-11-26T10:30:16.897Z,965.53
2018-11-26T10:31:16.865Z,965.50
2018-11-26T10:32:16.902Z,965.46
2018-11-26T10:33:16.853Z,965.46
2018-11-26T10:34:16.846Z,965.46
2018-11-26T10:35:16.872Z,965.41
2018-11-26T10:36:16.841Z,965.45
2018-11-26T10:37:16.828Z,965.44
2018-11-26T10:38:16.825Z,965.45
2018-11-26T10:39:16.821Z,965.44
2018-11-26T10:40:16.841Z,965.42
2018-11-26T10:41:16.808Z,965.38
2018-11-26T10:42:16.808Z,965.39
2018-11-26T10:43:16.796Z,965.40
2018-11-26T10:44:16.794Z,965.37
2018-11-26T10:45:16.812Z,965.37
2018-11-26T10:46:16.780Z,965.38
2018-11-26T10:47:16.776Z,965.33
2018-11-26T10:48:16.773Z,965.34
2018-11-26T10:49:16.764Z,965.34
2018-11-26T10:50:16.788Z,965.27
2018-11-26T10:51:16.752Z,965.28
2018-11-26T10:52:16.747Z,965.29
2018-11-26T10:53:16.740Z,965.29
2018-11-26T10:54:16.733Z,965.21
2018-11-26T10:55:16.757Z,965.24
2018-11-26T10:56:16.728Z,965.29
2018-11-26T10:57:16.723Z,965.28
2018-11-26T10:58:17.079Z,965.24
2018-11-26T10:59:16.700Z,965.26
2018-11-26T11:00:16.738Z,965.25
2018-11-26T11:01:16.697Z,965.26
2018-11-26T11:02:16.697Z,965.21
2018-11-26T11:03:16.684Z,965.23
2018-11-26T11:04:16.703Z,965.21
2018-11-26T11:05:16.705Z,965.25
2018-11-26T11:06:16.671Z,965.30
2018-11-26T11:07:16.665Z,965.28
2018-11-26T11:08:16.660Z,965.32
2018-11-26T11:09:16.655Z,965.31
2018-11-26T11:10:16.680Z,965.34
2018-11-26T11:11:23.178Z,965.34
2018-11-26T11:12:16.636Z,965.35
2018-11-26T11:13:16.634Z,965.34
2018-11-26T11:14:16.674Z,965.37
2018-11-26T11:15:16.783Z,965.42
2018-11-26T11:16:16.669Z,965.42
2018-11-26T11:17:16.619Z,965.43
2018-11-26T11:18:16.603Z,965.44
2018-11-26T11:19:16.626Z,965.48
2018-11-26T11:20:16.599Z,965.46
2018-11-26T11:21:16.612Z,965.46
2018-11-26T11:22:16.578Z,965.51
2018-11-26T11:23:16.576Z,965.47
2018-11-26T11:24:16.570Z,965.48
2018-11-26T11:25:16.565Z,965.44
2018-11-26T11:26:16.587Z,965.44
2018-11-26T11:27:16.551Z,965.41
2018-11-26T11:28:16.546Z,965.43
2018-11-26T11:29:16.542Z,965.44
2018-11-26T11:30:16.534Z,965.48
2018-11-26T11:31:16.562Z,965.42
2018-11-26T11:32:16.526Z,965.42
2018-11-26T11:34:08.315Z,965.42
2018-11-26T11:35:08.287Z,965.44
2018-11-26T11:36:08.302Z,965.46
2018-11-26T11:37:08.270Z,965.43
2018-11-26T11:38:08.284Z,965.48
2018-11-26T11:39:08.267Z,965.46
2018-11-26T11:40:08.255Z,965.45
2018-11-26T11:41:08.279Z,965.46
2018-11-26T11:42:08.247Z,965.52
2018-11-26T11:43:08.243Z,965.45
2018-11-26T11:44:08.236Z,965.44
2018-11-26T11:45:08.283Z,965.44
2018-11-26T11:46:08.248Z,965.49
2018-11-26T11:47:08.222Z,965.50
2018-11-26T11:48:08.209Z,965.47
2018-11-26T11:49:08.207Z,965.49
2018-11-26T11:50:08.203Z,965.46
2018-11-26T11:51:08.219Z,965.45
2018-11-26T11:52:08.184Z,965.45
2018-11-26T11:53:08.183Z,965.46
2018-11-26T11:54:08.176Z,965.46
2018-11-26T11:55:08.173Z,965.47
2018-11-26T11:56:08.197Z,965.50
2018-11-26T11:57:08.158Z,965.45
2018-11-26T11:58:08.160Z,965.45
2018-11-26T11:59:08.149Z,965.47
2018-11-26T12:00:08.172Z,965.46
2018-11-26T12:01:10.638Z,965.51
2018-11-26T12:02:08.135Z,965.48
2018-11-26T12:03:08.128Z,965.50
2018-11-26T12:04:08.120Z,965.48
2018-11-26T12:05:08.140Z,965.45
2018-11-26T12:06:08.110Z,965.46
2018-11-26T12:07:08.106Z,965.45
2018-11-26T12:08:08.097Z,965.45
2018-11-26T12:09:08.091Z,965.44
2018-11-26T12:10:08.116Z,965.44
2018-11-26T12:11:08.080Z,965.42
2018-11-26T12:12:08.076Z,965.47
2018-11-26T12:13:08.067Z,965.49
2018-11-26T12:14:08.058Z,965.42
2018-11-26T12:15:08.088Z,965.43
2018-11-26T12:16:08.048Z,965.43
2018-11-26T12:17:08.043Z,965.42
2018-11-26T12:18:08.039Z,965.45
2018-11-26T12:19:08.027Z,965.45
2018-11-26T12:20:08.055Z,965.48
2018-11-26T12:21:08.023Z,965.51
2018-11-26T12:22:08.013Z,965.45
2018-11-26T12:23:08.009Z,965.43
2018-11-26T12:24:08.007Z,965.45
2018-11-26T12:25:08.024Z,965.46
2018-11-26T12:26:08.375Z,965.43
2018-11-26T12:27:07.995Z,965.46
2018-11-26T12:28:07.981Z,965.45
2018-11-26T12:29:07.981Z,965.44